Observation data for Saint Lawrence on 08/01/2020      Previous  Date  Next       Current Mesonet Observations  Soil Data  Daily Summary Page  Observations in Plain Language
KST1 010500Z 08005KT 25/14 A301 RMK A01 T02500139  RH  051%=      5-min Rain = 0
KST1 010505Z 08006KT 25/14 A301 RMK A01 T02490138  RH  051%=      5-min Rain = 0
KST1 010510Z 08007KT 25/14 A301 RMK A01 T02490137  RH  051%=      5-min Rain = 0
KST1 010515Z 08006KT 25/14 A301 RMK A01 T02500138  RH  051%=      5-min Rain = 0
KST1 010520Z 09006KT 25/14 A301 RMK A01 T02470136  RH  051%=      5-min Rain = 0
KST1 010525Z 09006KT 24/14 A301 RMK A01 T02440135  RH  052%=      5-min Rain = 0
KST1 010530Z 09006KT 24/13 A301 RMK A01 T02390132  RH  052%=      5-min Rain = 0
KST1 010535Z 09006KT 24/13 A301 RMK A01 T02370130  RH  052%=      5-min Rain = 0
KST1 010540Z 09006KT 24/13 A301 RMK A01 T02380131  RH  052%=      5-min Rain = 0
KST1 010545Z 09006KT 24/13 A301 RMK A01 T02380131  RH  052%=      5-min Rain = 0
KST1 010550Z 09005KT 24/13 A301 RMK A01 T02370131  RH  052%=      5-min Rain = 0
KST1 010555Z 09006KT 24/13 A301 RMK A01 T02360131  RH  053%=      5-min Rain = 0
KST1 010600Z 10006KT 24/13 A3009 RMK A01 T02350131  RH  053%=      5-min Rain = 0
KST1 010605Z 10006KT 23/13 A3009 RMK A01 T02340130  RH  053%=      5-min Rain = 0
KST1 010610Z 10006KT 23/13 A3009 RMK A01 T02320129  RH  053%=      5-min Rain = 0
KST1 010615Z 10005KT 23/13 A3009 RMK A01 T02300129  RH  054%=      5-min Rain = 0
KST1 010620Z 09005KT 23/13 A301 RMK A01 T02290128  RH  054%=      5-min Rain = 0
KST1 010625Z 09004KT 23/13 A301 RMK A01 T02280128  RH  054%=      5-min Rain = 0
KST1 010630Z 09005KT 23/13 A3009 RMK A01 T02270128  RH  055%=      5-min Rain = 0
KST1 010635Z 09005KT 23/13 A3009 RMK A01 T02250128  RH  055%=      5-min Rain = 0
KST1 010640Z 08005KT 23/13 A301 RMK A01 T02270128  RH  055%=      5-min Rain = 0
KST1 010645Z 08004KT 23/13 A3009 RMK A01 T02250126  RH  054%=      5-min Rain = 0
KST1 010650Z 09005KT 23/13 A3009 RMK A01 T02250128  RH  055%=      5-min Rain = 0
KST1 010655Z 09005KT 23/13 A301 RMK A01 T02260128  RH  055%=      5-min Rain = 0
KST1 010700Z 09005KT 22/13 A301 RMK A01 T02210125  RH  056%=      5-min Rain = 0
KST1 010705Z 09004KT 22/13 A301 RMK A01 T02190126  RH  056%=      5-min Rain = 0
KST1 010710Z 10005KT 22/13 A3009 RMK A01 T02200126  RH  056%=      5-min Rain = 0
KST1 010715Z 10005KT 22/12 A3009 RMK A01 T02180124  RH  056%=      5-min Rain = 0
KST1 010720Z 10005KT 22/12 A301 RMK A01 T02170124  RH  057%=      5-min Rain = 0
KST1 010725Z 10005KT 22/13 A3009 RMK A01 T02180126  RH  057%=      5-min Rain = 0
KST1 010730Z 10004KT 22/13 A3009 RMK A01 T02190126  RH  057%=      5-min Rain = 0
KST1 010735Z 11004KT 22/13 A3009 RMK A01 T02210128  RH  057%=      5-min Rain = 0
KST1 010740Z 10003KT 22/13 A301 RMK A01 T02210127  RH  056%=      5-min Rain = 0
KST1 010745Z 08002KT 22/12 A301 RMK A01 T02170123  RH  056%=      5-min Rain = 0
KST1 010750Z 06003KT 21/11 A301 RMK A01 T02060108  RH  054%=      5-min Rain = 0
KST1 010755Z 06002KT 21/12 A301 RMK A01 T02070118  RH  058%=      5-min Rain = 0
KST1 010800Z 06003KT 21/12 A301 RMK A01 T02060117  RH  057%=      5-min Rain = 0
KST1 010805Z 09003KT 21/12 A301 RMK A01 T02060116  RH  058%=      5-min Rain = 0
KST1 010810Z 11004KT 21/12 A301 RMK A01 T02060120  RH  059%=      5-min Rain = 0
KST1 010815Z 11003KT 21/12 A3009 RMK A01 T02090124  RH  059%=      5-min Rain = 0
KST1 010820Z 11002KT 21/12 A3009 RMK A01 T02100118  RH  057%=      5-min Rain = 0
KST1 010825Z 11003KT 21/12 A3009 RMK A01 T02080119  RH  058%=      5-min Rain = 0
KST1 010830Z 11003KT 21/13 A3009 RMK A01 T02100125  RH  059%=      5-min Rain = 0
KST1 010835Z 11003KT 21/12 A3009 RMK A01 T02080119  RH  058%=      5-min Rain = 0
KST1 010840Z 11003KT 21/12 A3009 RMK A01 T02060118  RH  058%=      5-min Rain = 0
KST1 010845Z 10003KT 21/12 A3009 RMK A01 T02050119  RH  059%=      5-min Rain = 0
KST1 010850Z 10003KT 21/12 A3009 RMK A01 T02070122  RH  060%=      5-min Rain = 0
KST1 010855Z 10002KT 20/11 A3009 RMK A01 T02040110  RH  056%=      5-min Rain = 0
KST1 010900Z 09003KT 20/11 A3009 RMK A01 T02020108  RH  056%=      5-min Rain = 0
KST1 010905Z 08003KT 20/11 A3008 RMK A01 T02010113  RH  058%=      5-min Rain = 0
KST1 010910Z 09003KT 20/11 A3009 RMK A01 T02000108  RH  056%=      5-min Rain = 0
KST1 010915Z 10004KT 20/11 A3009 RMK A01 T01980113  RH  059%=      5-min Rain = 0
KST1 010920Z 09003KT 20/12 A3008 RMK A01 T01980116  RH  060%=      5-min Rain = 0
KST1 010925Z 10003KT 20/12 A3008 RMK A01 T01990120  RH  061%=      5-min Rain = 0
KST1 010930Z 10004KT 20/13 A3008 RMK A01 T02030126  RH  062%=      5-min Rain = 0
KST1 010935Z 11004KT 20/12 A3008 RMK A01 T02030123  RH  061%=      5-min Rain = 0
KST1 010940Z 10005KT 20/12 A3008 RMK A01 T02010120  RH  061%=      5-min Rain = 0
KST1 010945Z 11005KT 20/12 A3008 RMK A01 T01980117  RH  061%=      5-min Rain = 0
KST1 010950Z 11005KT 20/12 A3008 RMK A01 T01960117  RH  061%=      5-min Rain = 0
KST1 010955Z 11005KT 20/12 A3008 RMK A01 T01950115  RH  061%=      5-min Rain = 0
KST1 011000Z 11005KT 19/11 A3008 RMK A01 T01930114  RH  061%=      5-min Rain = 0
KST1 011005Z 12005KT 20/12 A3008 RMK A01 T01950117  RH  062%=      5-min Rain = 0
KST1 011010Z 12004KT 20/12 A3008 RMK A01 T01950119  RH  062%=      5-min Rain = 0
KST1 011015Z 12004KT 20/12 A3008 RMK A01 T01980122  RH  062%=      5-min Rain = 0
KST1 011020Z 12004KT 20/12 A3008 RMK A01 T02010122  RH  062%=      5-min Rain = 0
KST1 011025Z 12003KT 20/12 A3008 RMK A01 T02000120  RH  061%=      5-min Rain = 0
KST1 011030Z 12003KT 20/12 A3008 RMK A01 T01970119  RH  062%=      5-min Rain = 0
KST1 011035Z 12003KT 20/11 A3008 RMK A01 T01950114  RH  060%=      5-min Rain = 0
KST1 011040Z 14003KT 19/11 A3008 RMK A01 T01930113  RH  061%=      5-min Rain = 0
KST1 011045Z 15003KT 19/11 A3008 RMK A01 T01930113  RH  061%=      5-min Rain = 0
KST1 011050Z 14003KT 20/12 A3008 RMK A01 T01950115  RH  061%=      5-min Rain = 0
KST1 011055Z 14004KT 20/12 A3008 RMK A01 T01960118  RH  062%=      5-min Rain = 0
KST1 011100Z 13003KT 20/12 A3008 RMK A01 T01980124  RH  063%=      5-min Rain = 0
KST1 011105Z 13002KT 20/12 A3008 RMK A01 T01980123  RH  063%=      5-min Rain = 0
KST1 011110Z 12003KT 20/12 A3008 RMK A01 T01950121  RH  063%=      5-min Rain = 0
KST1 011115Z 13004KT 19/12 A3008 RMK A01 T01920120  RH  064%=      5-min Rain = 0
KST1 011120Z 11003KT 19/11 A3008 RMK A01 T01870114  RH  064%=      5-min Rain = 0
KST1 011125Z 11003KT 18/11 A3008 RMK A01 T01840107  RH  062%=      5-min Rain = 0
KST1 011130Z 11003KT 19/11 A3008 RMK A01 T01850111  RH  063%=      5-min Rain = 0
KST1 011135Z 11002KT 18/11 A3008 RMK A01 T01840107  RH  062%=      5-min Rain = 0
KST1 011140Z 11002KT 18/10 A3008 RMK A01 T01790101  RH  061%=      5-min Rain = 0
KST1 011145Z 12002KT 18/10 A3008 RMK A01 T01800102  RH  062%=      5-min Rain = 0
KST1 011150Z 09001KT 18/10 A3009 RMK A01 T01770096  RH  060%=      5-min Rain = 0
KST1 011155Z 09003KT 18/10 A3009 RMK A01 T01770100  RH  061%=      5-min Rain = 0
KST1 011200Z 09004KT 18/11 A3009 RMK A01 T01800109  RH  064%=      5-min Rain = 0
KST1 011205Z 09003KT 18/11 A3009 RMK A01 T01810108  RH  063%=      5-min Rain = 0
KST1 011210Z 08002KT 18/11 A301 RMK A01 T01790107  RH  064%=      5-min Rain = 0
KST1 011215Z 07002KT 18/11 A3009 RMK A01 T01790105  RH  063%=      5-min Rain = 0
KST1 011220Z 06002KT 18/11 A3009 RMK A01 T01800107  RH  063%=      5-min Rain = 0
KST1 011225Z 05002KT 18/10 A3009 RMK A01 T01790102  RH  061%=      5-min Rain = 0
KST1 011230Z 05002KT 18/10 A301 RMK A01 T01790099  RH  060%=      5-min Rain = 0
KST1 011235Z 04002KT 18/10 A301 RMK A01 T01810099  RH  060%=      5-min Rain = 0
KST1 011240Z 04002KT 19/10 A301 RMK A01 T01850100  RH  059%=      5-min Rain = 0
KST1 011245Z 05002KT 19/10 A3009 RMK A01 T01880102  RH  058%=      5-min Rain = 0
KST1 011250Z 06002KT 19/11 A3009 RMK A01 T01910106  RH  059%=      5-min Rain = 0
KST1 011255Z 08002KT 20/12 A3009 RMK A01 T01990117  RH  060%=      5-min Rain = 0
KST1 011300Z 08003KT 21/12 A3009 RMK A01 T02080123  RH  059%=      5-min Rain = 0
KST1 011305Z 07003KT 21/13 A301 RMK A01 T02110126  RH  059%=      5-min Rain = 0
KST1 011310Z 07003KT 21/13 A301 RMK A01 T02120125  RH  059%=      5-min Rain = 0
KST1 011315Z 08003KT 22/13 A301 RMK A01 T02170129  RH  058%=      5-min Rain = 0
KST1 011320Z 10003KT 22/13 A301 RMK A01 T02220133  RH  058%=      5-min Rain = 0
KST1 011325Z 10003KT 22/13 A301 RMK A01 T02230134  RH  058%=      5-min Rain = 0
KST1 011330Z 13002KT 23/14 A301 RMK A01 T02250138  RH  059%=      5-min Rain = 0
KST1 011335Z 13002KT 23/14 A301 RMK A01 T02310139  RH  057%=      5-min Rain = 0
KST1 011340Z 17001KT 24/14 A3011 RMK A01 T02360141  RH  056%=      5-min Rain = 0
KST1 011345Z 22002KT 24/14 A3011 RMK A01 T02350140  RH  056%=      5-min Rain = 0
KST1 011350Z 26002KT 23/14 A3011 RMK A01 T02340140  RH  057%=      5-min Rain = 0
KST1 011355Z 28002KT 23/14 A3011 RMK A01 T02340140  RH  057%=      5-min Rain = 0
KST1 011400Z 29003KT 24/14 A3011 RMK A01 T02360142  RH  057%=      5-min Rain = 0
KST1 011405Z 29002KT 24/14 A3011 RMK A01 T02370144  RH  057%=      5-min Rain = 0
KST1 011410Z 30002KT 24/15 A3011 RMK A01 T02420146  RH  056%=      5-min Rain = 0
KST1 011415Z 28002KT 25/15 A3011 RMK A01 T02480149  RH  055%=      5-min Rain = 0
KST1 011420Z 32001KT 25/15 A3011 RMK A01 T02540152  RH  054%=      5-min Rain = 0
KST1 011425Z 31001KT 26/16 A3012 RMK A01 T02600155  RH  054%=      5-min Rain = 0
KST1 011430Z 30001KT 27/16 A3012 RMK A01 T02700159  RH  052%=      5-min Rain = 0
KST1 011435Z 25002KT 28/17 A3012 RMK A01 T02750166  RH  053%=      5-min Rain = 0
KST1 011440Z 25003KT 28/17 A3012 RMK A01 T02750170  RH  054%=      5-min Rain = 0
KST1 011445Z 27004KT 28/17 A3012 RMK A01 T02770170  RH  053%=      5-min Rain = 0
KST1 011450Z 27004KT 28/17 A3012 RMK A01 T02810171  RH  053%=      5-min Rain = 0
KST1 011455Z 27005KT 28/17 A3012 RMK A01 T02820170  RH  052%=      5-min Rain = 0
KST1 011500Z 27003KT 28/17 A3013 RMK A01 T02810170  RH  052%=      5-min Rain = 0
KST1 011505Z 25004KT 29/17 A3013 RMK A01 T02850170  RH  051%=      5-min Rain = 0
KST1 011510Z 21005KT 29/17 A3013 RMK A01 T02860165  RH  049%=      5-min Rain = 0
KST1 011515Z 20003KT 29/16 A3013 RMK A01 T02870159  RH  047%=      5-min Rain = 0
KST1 011520Z 21003KT 29/16 A3013 RMK A01 T02910159  RH  046%=      5-min Rain = 0
KST1 011525Z 18004KT 29/16 A3013 RMK A01 T02920159  RH  045%=      5-min Rain = 0
KST1 011530Z 20001KT 29/16 A3013 RMK A01 T02920158  RH  045%=      5-min Rain = 0
KST1 011535Z 21002KT 30/16 A3013 RMK A01 T03000159  RH  044%=      5-min Rain = 0
KST1 011540Z 19004KT 30/15 A3013 RMK A01 T02960152  RH  042%=      5-min Rain = 0
KST1 011545Z 20004KT 30/15 A3013 RMK A01 T02990146  RH  040%=      5-min Rain = 0
KST1 011550Z 24001KT 30/14 A3013 RMK A01 T02990144  RH  040%=      5-min Rain = 0
KST1 011555Z 22002KT 30/15 A3013 RMK A01 T03030147  RH  039%=      5-min Rain = 0
KST1 011600Z 17004G9KT 30/14 A3013 RMK A01 T03030142  RH  038%=      5-min Rain = 0
KST1 011605Z 14004KT 31/14 A3013 RMK A01 T03050139  RH  037%=      5-min Rain = 0
KST1 011610Z 17005KT 31/14 A3013 RMK A01 T03060139  RH  037%=      5-min Rain = 0
KST1 011615Z 15002KT 31/14 A3013 RMK A01 T03060138  RH  037%=      5-min Rain = 0
KST1 011620Z 17002KT 31/14 A3013 RMK A01 T03090136  RH  036%=      5-min Rain = 0
KST1 011625Z 08002KT 31/13 A3013 RMK A01 T03110133  RH  034%=      5-min Rain = 0
KST1 011630Z 08002KT 32/13 A3013 RMK A01 T03180133  RH  033%=      5-min Rain = 0
KST1 011635Z 03002KT 32/13 A3012 RMK A01 T03150131  RH  033%=      5-min Rain = 0
KST1 011640Z 08002KT 32/14 A3012 RMK A01 T03170135  RH  034%=      5-min Rain = 0
KST1 011645Z 10003KT 32/13 A3012 RMK A01 T03190131  RH  033%=      5-min Rain = 0
KST1 011650Z 02002KT 32/13 A3012 RMK A01 T03220129  RH  032%=      5-min Rain = 0
KST1 011655Z 04003KT 33/13 A3012 RMK A01 T03250129  RH  031%=      5-min Rain = 0
KST1 011700Z 08004G9KT 32/13 A3012 RMK A01 T03230125  RH  031%=      5-min Rain = 0
KST1 011705Z 08006KT 32/12 A3012 RMK A01 T03240123  RH  030%=      5-min Rain = 0
KST1 011710Z 13005KT 32/13 A3012 RMK A01 T03200125  RH  031%=      5-min Rain = 0
KST1 011715Z 17002KT 32/12 A3012 RMK A01 T03230124  RH  030%=      5-min Rain = 0
KST1 011720Z 03004KT 34/12 A3012 RMK A01 T03350119  RH  027%=      5-min Rain = 0
KST1 011725Z 01007G12KT 33/10 A3012 RMK A01 T03310103  RH  025%=      5-min Rain = 0
KST1 011730Z 02005G10KT 33/10 A3012 RMK A01 T03290103  RH  025%=      5-min Rain = 0
KST1 011735Z 00010KT 33/10 A3012 RMK A01 T03340101  RH  024%=      5-min Rain = 0
KST1 011740Z 01008KT 33/10 A3012 RMK A01 T03270103  RH  026%=      5-min Rain = 0
KST1 011745Z 04004KT 33/10 A3011 RMK A01 T03250104  RH  026%=      5-min Rain = 0
KST1 011750Z 03005G12KT 33/11 A3011 RMK A01 T03270106  RH  026%=      5-min Rain = 0
KST1 011755Z 03007G12KT 33/11 A3011 RMK A01 T03280108  RH  027%=      5-min Rain = 0
KST1 011800Z 07005G11KT 33/11 A3011 RMK A01 T03300109  RH  026%=      5-min Rain = 0
KST1 011805Z 07006KT 33/11 A3011 RMK A01 T03300110  RH  027%=      5-min Rain = 0
KST1 011810Z 08005KT 33/11 A3011 RMK A01 T03300108  RH  026%=      5-min Rain = 0
KST1 011815Z 02005KT 33/11 A3011 RMK A01 T03300109  RH  026%=      5-min Rain = 0
KST1 011820Z 34006G12KT 33/11 A3011 RMK A01 T03330107  RH  026%=      5-min Rain = 0
KST1 011825Z 00006KT 34/10 A3011 RMK A01 T03350104  RH  025%=      5-min Rain = 0
KST1 011830Z 35009KT 34/10 A3011 RMK A01 T03430099  RH  023%=      5-min Rain = 0
KST1 011835Z 31006KT 34/09 A3011 RMK A01 T03400092  RH  022%=      5-min Rain = 0
KST1 011840Z 34004G11KT 34/10 A3011 RMK A01 T03400102  RH  024%=      5-min Rain = 0
KST1 011845Z 34008KT 34/10 A3011 RMK A01 T03410102  RH  024%=      5-min Rain = 0
KST1 011850Z 31004KT 34/10 A301 RMK A01 T03370102  RH  024%=      5-min Rain = 0
KST1 011855Z 35006G11KT 34/11 A301 RMK A01 T03410105  RH  024%=      5-min Rain = 0
KST1 011900Z 33006G11KT 34/11 A301 RMK A01 T03420108  RH  024%=      5-min Rain = 0
KST1 011905Z 34003KT 34/11 A301 RMK A01 T03380106  RH  025%=      5-min Rain = 0
KST1 011910Z 27006KT 34/10 A301 RMK A01 T03390103  RH  024%=      5-min Rain = 0
KST1 011915Z 05004KT 35/10 A3009 RMK A01 T03460097  RH  022%=      5-min Rain = 0
KST1 011920Z 04009KT 35/10 A3009 RMK A01 T03450099  RH  023%=      5-min Rain = 0
KST1 011925Z 08006G11KT 34/10 A3009 RMK A01 T03410104  RH  024%=      5-min Rain = 0
KST1 011930Z 07008G13KT 34/11 A3009 RMK A01 T03420105  RH  024%=      5-min Rain = 0
KST1 011935Z 09006G12KT 34/10 A3009 RMK A01 T03440098  RH  023%=      5-min Rain = 0
KST1 011940Z 11006G11KT 34/10 A3008 RMK A01 T03430100  RH  023%=      5-min Rain = 0
KST1 011945Z 09008KT 34/10 A3008 RMK A01 T03440103  RH  023%=      5-min Rain = 0
KST1 011950Z 09008G14KT 34/11 A3008 RMK A01 T03430107  RH  024%=      5-min Rain = 0
KST1 011955Z 11003KT 34/11 A3008 RMK A01 T03430105  RH  024%=      5-min Rain = 0
KST1 012000Z 08006KT 35/11 A3007 RMK A01 T03490106  RH  023%=      5-min Rain = 0
KST1 012005Z 03007KT 35/11 A3007 RMK A01 T03450105  RH  024%=      5-min Rain = 0
KST1 012010Z 04005G10KT 35/10 A3007 RMK A01 T03500102  RH  022%=      5-min Rain = 0
KST1 012015Z 05009KT 35/10 A3007 RMK A01 T03510103  RH  023%=      5-min Rain = 0
KST1 012020Z 01005KT 35/10 A3007 RMK A01 T03480104  RH  023%=      5-min Rain = 0
KST1 012025Z 01007G14KT 35/10 A3006 RMK A01 T03530097  RH  021%=      5-min Rain = 0
KST1 012030Z 02009KT 35/10 A3006 RMK A01 T03520097  RH  022%=      5-min Rain = 0
KST1 012035Z 00008KT 35/10 A3006 RMK A01 T03480101  RH  023%=      5-min Rain = 0
KST1 012040Z 32005KT 35/10 A3006 RMK A01 T03470100  RH  023%=      5-min Rain = 0
KST1 012045Z 31003KT 35/10 A3005 RMK A01 T03490099  RH  022%=      5-min Rain = 0
KST1 012050Z 20002KT 35/10 A3005 RMK A01 T03480100  RH  023%=      5-min Rain = 0
KST1 012055Z 06003G8KT 36/10 A3005 RMK A01 T03550104  RH  022%=      5-min Rain = 0
KST1 012100Z 05007KT 36/10 A3005 RMK A01 T03560104  RH  022%=      5-min Rain = 0
KST1 012105Z 08004KT 35/10 A3004 RMK A01 T03490102  RH  023%=      5-min Rain = 0
KST1 012110Z 11002KT 35/10 A3004 RMK A01 T03470101  RH  023%=      5-min Rain = 0
KST1 012115Z 20004KT 35/10 A3004 RMK A01 T03530099  RH  022%=      5-min Rain = 0
KST1 012120Z 11005KT 35/10 A3004 RMK A01 T03500101  RH  022%=      5-min Rain = 0
KST1 012125Z 12004KT 35/10 A3003 RMK A01 T03500098  RH  022%=      5-min Rain = 0
KST1 012130Z 01003KT 35/10 A3003 RMK A01 T03500096  RH  022%=      5-min Rain = 0
KST1 012135Z 02007KT 35/10 A3003 RMK A01 T03460097  RH  022%=      5-min Rain = 0
KST1 012140Z 05004KT 35/09 A3003 RMK A01 T03470089  RH  021%=      5-min Rain = 0
KST1 012145Z 04005KT 35/10 A3003 RMK A01 T03530096  RH  021%=      5-min Rain = 0
KST1 012150Z 06004KT 36/09 A3003 RMK A01 T03550091  RH  020%=      5-min Rain = 0
KST1 012155Z 34004KT 37/09 A3003 RMK A01 T03650086  RH  019%=      5-min Rain = 0
KST1 012200Z 30004KT 36/08 A3002 RMK A01 T03620084  RH  019%=      5-min Rain = 0
KST1 012205Z 03008G14KT 36/09 A3002 RMK A01 T03590094  RH  020%=      5-min Rain = 0
KST1 012210Z 01008G15KT 36/09 A3002 RMK A01 T03560093  RH  020%=      5-min Rain = 0
KST1 012215Z 04007G12KT 36/09 A3002 RMK A01 T03580089  RH  020%=      5-min Rain = 0
KST1 012220Z 02008KT 36/09 A3002 RMK A01 T03570089  RH  020%=      5-min Rain = 0
KST1 012225Z 02007KT 36/09 A3002 RMK A01 T03560089  RH  020%=      5-min Rain = 0
KST1 012230Z 03005G11KT 36/09 A3002 RMK A01 T03570088  RH  020%=      5-min Rain = 0
KST1 012235Z 09005KT 36/09 A3001 RMK A01 T03560089  RH  020%=      5-min Rain = 0
KST1 012240Z 23002KT 35/09 A3001 RMK A01 T03500088  RH  020%=      5-min Rain = 0
KST1 012245Z 17005KT 36/09 A3001 RMK A01 T03550089  RH  020%=      5-min Rain = 0
KST1 012250Z 14005KT 36/09 A3001 RMK A01 T03550094  RH  021%=      5-min Rain = 0
KST1 012255Z 09004KT 35/09 A30 RMK A01 T03530092  RH  021%=      5-min Rain = 0
KST1 012300Z 09004KT 36/09 A30 RMK A01 T03560091  RH  020%=      5-min Rain = 0
KST1 012305Z 08003G9KT 36/09 A30 RMK A01 T03580094  RH  020%=      5-min Rain = 0
KST1 012310Z 01007G12KT 36/09 A30 RMK A01 T03620088  RH  019%=      5-min Rain = 0
KST1 012315Z 34006KT 36/09 A30 RMK A01 T03590088  RH  020%=      5-min Rain = 0
KST1 012320Z 03007KT 36/09 A30 RMK A01 T03590093  RH  020%=      5-min Rain = 0
KST1 012325Z 36004KT 35/09 A30 RMK A01 T03540091  RH  020%=      5-min Rain = 0
KST1 012330Z 06003KT 36/09 A30 RMK A01 T03570092  RH  020%=      5-min Rain = 0
KST1 012335Z 09007KT 36/10 A2999 RMK A01 T03550100  RH  022%=      5-min Rain = 0
KST1 012340Z 08007KT 35/10 A2999 RMK A01 T03520098  RH  022%=      5-min Rain = 0
KST1 012345Z 08007KT 35/10 A2999 RMK A01 T03490099  RH  022%=      5-min Rain = 0
KST1 012350Z 06007KT 35/09 A2999 RMK A01 T03530093  RH  021%=      5-min Rain = 0
KST1 012355Z 07007KT 35/10 A2999 RMK A01 T03510095  RH  021%=      5-min Rain = 0
KST1 020000Z 02003KT 35/09 A2999 RMK A01 T03500092  RH  021%=      5-min Rain = 0
KST1 020005Z 10006G11KT 35/10 A2999 RMK A01 T03530100  RH  022%=      5-min Rain = 0
KST1 020010Z 12004KT 35/10 A2999 RMK A01 T03460098  RH  022%=      5-min Rain = 0
KST1 020015Z 07006KT 35/10 A2999 RMK A01 T03500097  RH  022%=      5-min Rain = 0
KST1 020020Z 08007G12KT 35/09 A2999 RMK A01 T03480094  RH  022%=      5-min Rain = 0
KST1 020025Z 09009G14KT 34/10 A2999 RMK A01 T03430096  RH  022%=      5-min Rain = 0
KST1 020030Z 08011KT 34/09 A2999 RMK A01 T03440094  RH  022%=      5-min Rain = 0
KST1 020035Z 08010KT 34/09 A2999 RMK A01 T03410093  RH  022%=      5-min Rain = 0
KST1 020040Z 08009KT 34/09 A30 RMK A01 T03400093  RH  022%=      5-min Rain = 0
KST1 020045Z 08009KT 34/09 A2999 RMK A01 T03390093  RH  023%=      5-min Rain = 0
KST1 020050Z 08009KT 34/09 A30 RMK A01 T03380093  RH  023%=      5-min Rain = 0
KST1 020055Z 08009KT 34/09 A30 RMK A01 T03370093  RH  023%=      5-min Rain = 0
KST1 020100Z 09012G18KT 33/10 A30 RMK A01 T03320099  RH  024%=      5-min Rain = 0
KST1 020105Z 08018G25KT 31/12 A30 RMK A01 T03070118  RH  032%=      5-min Rain = 0
KST1 020110Z 09015G22KT 30/12 A30 RMK A01 T03010121  RH  034%=      5-min Rain = 0
KST1 020115Z 09018KT 29/13 A3001 RMK A01 T02930127  RH  037%=      5-min Rain = 0
KST1 020120Z 10015G20KT 29/13 A3001 RMK A01 T02900126  RH  037%=      5-min Rain = 0
KST1 020125Z 11016G21KT 29/12 A3001 RMK A01 T02900119  RH  035%=      5-min Rain = 0
KST1 020130Z 11015G20KT 29/11 A3001 RMK A01 T02860114  RH  035%=      5-min Rain = 0
KST1 020135Z 10016G21KT 28/11 A3001 RMK A01 T02840105  RH  033%=      5-min Rain = 0
KST1 020140Z 11014G20KT 28/10 A3002 RMK A01 T02820101  RH  033%=      5-min Rain = 0
KST1 020145Z 12012KT 28/10 A3002 RMK A01 T02820100  RH  033%=      5-min Rain = 0
KST1 020150Z 12011KT 28/10 A3002 RMK A01 T02820099  RH  032%=      5-min Rain = 0
KST1 020155Z 12010KT 28/10 A3002 RMK A01 T02820098  RH  032%=      5-min Rain = 0
KST1 020200Z 12010KT 28/10 A3002 RMK A01 T02810099  RH  033%=      5-min Rain = 0
KST1 020205Z 12009KT 28/10 A3002 RMK A01 T02800100  RH  033%=      5-min Rain = 0
KST1 020210Z 12009KT 28/10 A3002 RMK A01 T02790104  RH  034%=      5-min Rain = 0
KST1 020215Z 11008KT 28/11 A3002 RMK A01 T02770106  RH  035%=      5-min Rain = 0
KST1 020220Z 13008KT 28/11 A3002 RMK A01 T02750106  RH  035%=      5-min Rain = 0
KST1 020225Z 13009KT 27/11 A3003 RMK A01 T02740106  RH  036%=      5-min Rain = 0
KST1 020230Z 12008KT 27/11 A3003 RMK A01 T02720107  RH  036%=      5-min Rain = 0
KST1 020235Z 13007KT 27/11 A3003 RMK A01 T02690106  RH  037%=      5-min Rain = 0
KST1 020240Z 12007KT 27/11 A3003 RMK A01 T02680107  RH  037%=      5-min Rain = 0
KST1 020245Z 13006KT 27/11 A3003 RMK A01 T02660108  RH  038%=      5-min Rain = 0
KST1 020250Z 13006KT 26/11 A3003 RMK A01 T02640108  RH  038%=      5-min Rain = 0
KST1 020255Z 12006KT 26/11 A3003 RMK A01 T02620108  RH  039%=      5-min Rain = 0
KST1 020300Z 13005KT 26/11 A3004 RMK A01 T02600107  RH  039%=      5-min Rain = 0
KST1 020305Z 11005KT 26/11 A3004 RMK A01 T02570107  RH  040%=      5-min Rain = 0
KST1 020310Z 11005KT 26/11 A3004 RMK A01 T02560107  RH  040%=      5-min Rain = 0
KST1 020315Z 12005KT 26/11 A3004 RMK A01 T02560108  RH  040%=      5-min Rain = 0
KST1 020320Z 12004KT 25/11 A3004 RMK A01 T02540108  RH  040%=      5-min Rain = 0
KST1 020325Z 12005KT 25/11 A3004 RMK A01 T02520107  RH  041%=      5-min Rain = 0
KST1 020330Z 11005KT 25/11 A3004 RMK A01 T02510106  RH  041%=      5-min Rain = 0
KST1 020335Z 10005KT 25/11 A3005 RMK A01 T02490105  RH  041%=      5-min Rain = 0
KST1 020340Z 10005KT 25/10 A3005 RMK A01 T02490103  RH  040%=      5-min Rain = 0
KST1 020345Z 10005KT 25/10 A3005 RMK A01 T02490102  RH  040%=      5-min Rain = 0
KST1 020350Z 10006KT 25/10 A3005 RMK A01 T02480104  RH  041%=      5-min Rain = 0
KST1 020355Z 10006KT 25/11 A3005 RMK A01 T02490105  RH  041%=      5-min Rain = 0
KST1 020400Z 10006KT 25/10 A3005 RMK A01 T02470104  RH  041%=      5-min Rain = 0
KST1 020405Z 10006KT 25/11 A3006 RMK A01 T02460105  RH  042%=      5-min Rain = 0
KST1 020410Z 09006KT 25/10 A3006 RMK A01 T02460104  RH  041%=      5-min Rain = 0
KST1 020415Z 10006KT 25/10 A3006 RMK A01 T02460104  RH  041%=      5-min Rain = 0
KST1 020420Z 11005KT 25/11 A3006 RMK A01 T02460105  RH  042%=      5-min Rain = 0
KST1 020425Z 10005KT 24/11 A3006 RMK A01 T02440105  RH  042%=      5-min Rain = 0
KST1 020430Z 09004KT 24/10 A3006 RMK A01 T02430102  RH  042%=      5-min Rain = 0
KST1 020435Z 10005KT 24/10 A3006 RMK A01 T02420102  RH  042%=      5-min Rain = 0
KST1 020440Z 09006KT 24/10 A3006 RMK A01 T02410102  RH  042%=      5-min Rain = 0
KST1 020445Z 10006KT 24/10 A3006 RMK A01 T02430103  RH  042%=      5-min Rain = 0
KST1 020450Z 10005KT 24/10 A3006 RMK A01 T02400103  RH  043%=      5-min Rain = 0
KST1 020455Z 11006KT 24/10 A3007 RMK A01 T02390103  RH  043%=      5-min Rain = 0

Page generated in 0.0155 seconds.